Mundford, United Kingdom
Current Conditions -  °F | °C
As of 3:46 PM on Friday 24 Oct 2014 (Local Time) from EGUL Reporting Station
Drizzle Drizzle  
Wind Chill: 61°   Ceiling: 2400
Heat Index: 61°   Visibility: 6mi
Dew Point: 61°   Wind: 8mph
Humidity: 100%   Direction: 210°SSW
Pressure: 29.88"   Gusts: NA
Location:  52.51°N, 0.66°E
Report Text: EGUL 241446Z AUTO 21007KT 9999 -DZ OVC024 16/16 A2988 RMK AO2 RAB1431E1440DZB1446
Loading
Personal Weather Stations






























Interactive Weather Map
Tropical Storm Tracking
New forecast layout! Learn more

10-Day Weather Forecast

Advertisements
Track Severe Weather on mobile